Flight Track Log - Related Links

Times and Time Zones

All times are in EDT time to prevent confusion due to time zone crossing. See the CSN3698 flight status page for this flight to view local times or setup timezone preferences in your user account.

Time Position Orientation Groundspeed Altitude Reporting Facility
EDT Latitude Longitude Course Direction KTS MPH feet Rate Location/Type
Fri 01:12:00 PM 31.2328 118.4917 212° Southwest  Level Estimated
Fri 01:13:00 PM 31.1479 118.4304 212° Southwest  Level Estimated
Fri 01:14:00 PM 31.0629 118.3692 212° Southwest  Level Estimated
Fri 01:15:00 PM 30.9778 118.3081 212° Southwest  Level Estimated
Fri 01:16:00 PM 30.8928 118.2471 212° Southwest  Level Estimated
Fri 01:17:00 PM 30.8077 118.1862 212° Southwest  Level Estimated
Fri 01:18:00 PM 30.7226 118.1254 212° Southwest  Level Estimated
Fri 01:19:00 PM 30.6374 118.0647 212° Southwest  Level Estimated
Fri 01:20:00 PM 30.5523 118.0042 211° Southwest  Level Estimated
Fri 01:21:00 PM 30.4671 117.9437 211° Southwest  Level Estimated
Fri 01:22:00 PM 30.3818 117.8833 211° Southwest  Level Estimated
Fri 01:23:00 PM 30.2966 117.8231 211° Southwest  Level Estimated
Fri 01:24:00 PM 30.2113 117.7629 211° Southwest  Level Estimated
Fri 01:25:00 PM 30.1260 117.7029 211° Southwest  Level Estimated
Fri 01:26:00 PM 30.0407 117.6429 211° Southwest  Level Estimated
Fri 01:27:00 PM 29.9553 117.5831 211° Southwest  Level Estimated
Fri 01:28:00 PM 29.8699 117.5234 211° Southwest  Level Estimated
Fri 01:29:00 PM 29.7845 117.4637 211° Southwest  Level Estimated
Fri 01:30:00 PM 29.6990 117.4042 211° Southwest  Level Estimated
Fri 01:31:00 PM 29.6136 117.3448 211° Southwest  Level Estimated
Fri 01:32:00 PM 29.5281 117.2855 211° Southwest  Level Estimated
Fri 01:33:00 PM 29.4426 117.2262 211° Southwest  Level Estimated
Fri 01:34:00 PM 29.3570 117.1671 211° Southwest  Level Estimated
Fri 01:35:00 PM 29.2714 117.1081 211° Southwest  Level Estimated
Fri 01:36:00 PM 29.1858 117.0491 211° Southwest  Level Estimated
Fri 01:37:00 PM 29.1002 116.9903 211° Southwest  Level Estimated
Fri 01:38:00 PM 29.0145 116.9316 211° Southwest  Level Estimated
Fri 01:39:00 PM 28.9289 116.8729 211° Southwest  Level Estimated
Fri 01:40:00 PM 28.8431 116.8144 211° Southwest  Level Estimated
Fri 01:41:00 PM 28.7574 116.7559 211° Southwest  Level Estimated
Fri 01:42:00 PM 28.6717 116.6976 211° Southwest  Level Estimated
Fri 01:43:00 PM 28.5859 116.6393 211° Southwest  Level Estimated
Fri 01:44:00 PM 28.5001 116.5812 211° Southwest  Level Estimated
Fri 01:45:00 PM 28.4143 116.5231 211° Southwest  Level Estimated
Fri 01:46:00 PM 28.3284 116.4651 211° Southwest  Level Estimated
Fri 01:47:00 PM 28.2425 116.4073 211° Southwest  Level Estimated
Fri 01:48:00 PM 28.1566 116.3495 211° Southwest  Level Estimated
Fri 01:49:00 PM 28.0707 116.2918 211° Southwest  Level Estimated
Fri 01:50:00 PM 27.9848 116.2342 211° Southwest  Level Estimated
Fri 01:51:00 PM 27.8988 116.1767 211° Southwest  Level Estimated
Fri 01:52:00 PM 27.8128 116.1193 211° Southwest  Level Estimated
Fri 01:53:00 PM 27.7267 116.0620 211° Southwest  Level Estimated
Fri 01:54:00 PM 27.6407 116.0047 211° Southwest  Level Estimated
Fri 01:55:00 PM 27.5546 115.9476 210° Southwest  Level Estimated
Fri 01:56:00 PM 27.4685 115.8905 210° Southwest  Level Estimated
Fri 01:57:00 PM 27.3824 115.8336 210° Southwest  Level Estimated
Fri 01:58:00 PM 27.2963 115.7767 210° Southwest  Level Estimated
Fri 01:59:00 PM 27.2101 115.7199 210° Southwest  Level Estimated
Fri 02:00:00 PM 27.1239 115.6632 210° Southwest  Level Estimated
Fri 02:01:00 PM 27.0377 115.6066 210° Southwest  Level Estimated
Fri 02:02:00 PM 26.9515 115.5501 210° Southwest  Level Estimated
Fri 02:03:00 PM 26.8652 115.4936 210° Southwest  Level Estimated
Fri 02:04:00 PM 26.7790 115.4373 210° Southwest  Level Estimated
Fri 02:05:00 PM 26.6927 115.3810 210° Southwest  Level Estimated
Fri 02:06:00 PM 26.6064 115.3248 210° Southwest  Level Estimated
Fri 02:07:00 PM 26.5200 115.2687 210° Southwest  Level Estimated
Fri 02:08:00 PM 26.4336 115.2127 210° Southwest  Level Estimated
Fri 02:09:00 PM 26.3473 115.1568 210° Southwest  Level Estimated
Fri 02:10:00 PM 26.2609 115.1009 210° Southwest  Level Estimated
Fri 02:11:00 PM 26.1744 115.0452 210° Southwest  Level Estimated
Fri 02:12:00 PM 26.0880 114.9895 210° Southwest  Level Estimated
Fri 02:13:00 PM 26.0015 114.9339 210° Southwest  Level Estimated
Fri 02:14:00 PM 25.9150 114.8784 210° Southwest  Level Estimated
Fri 02:15:00 PM 25.8285 114.8230 210° Southwest  Level Estimated
Fri 02:16:00 PM 25.7420 114.7676 210° Southwest  Level Estimated
Fri 02:17:00 PM 25.6554 114.7123 210° Southwest  Level Estimated
Fri 02:18:00 PM 25.5688 114.6571 210° Southwest  Level Estimated
Fri 02:19:00 PM 25.4822 114.6020 210° Southwest  Level Estimated
Fri 02:20:00 PM 25.3956 114.5470 210° Southwest  Level Estimated
Fri 02:21:00 PM 25.3090 114.4920 210° Southwest  Level Estimated
Fri 02:22:00 PM 25.2223 114.4371 210° Southwest  Level Estimated
Fri 02:23:00 PM 25.1357 114.3823 210° Southwest  Level Estimated
Fri 02:24:00 PM 25.0490 114.3276 210° Southwest  Level Estimated
Fri 02:25:00 PM 24.9622 114.2730 210° Southwest  Level Estimated
Fri 02:26:00 PM 24.8755 114.2184 210° Southwest  Level Estimated
Fri 02:27:00 PM 24.7887 114.1639 210° Southwest  Level Estimated
Fri 02:28:00 PM 24.7020 114.1095 210° Southwest  Level Estimated
Fri 02:29:00 PM 24.6152 114.0552 210° Southwest  Level Estimated
Fri 02:30:00 PM 24.5284 114.0009 210° Southwest  Level Estimated
Fri 02:31:00 PM 24.4415 113.9467 210° Southwest  Level Estimated
Fri 02:32:00 PM 24.3547 113.8926 210° Southwest  Level Estimated
Fri 02:33:00 PM 24.2678 113.8386 210° Southwest  Level Estimated
Fri 02:34:00 PM 24.1809 113.7846 210° Southwest  Level Estimated
Fri 02:35:00 PM 24.0940 113.7307 210° Southwest  Level Estimated
Fri 02:36:00 PM 24.0070 113.6769 209° Southwest  Level Estimated
Fri 02:37:00 PM 23.9201 113.6232 209° Southwest  Level Estimated
Fri 02:38:00 PM 23.8331 113.5695 209° Southwest  Level Estimated
Fri 02:39:00 PM 23.7461 113.5159 209° Southwest  Level Estimated
Fri 02:40:00 PM 23.6591 113.4623 209° Southwest  Level Estimated
Fri 02:41:00 PM 23.5721 113.4089 209° Southwest  Level Estimated
Fri 02:42:00 PM 23.4851 113.3555 209° Southwest  Level Estimated
Fri 02:43:00 PM 23.3980 113.3022 209° Southwest  Level Estimated
Fri 02:44:00 PM 23.3924 113.2988 209° Southwest  Level Estimated
Fri 02:45:00 PM 23.3924 113.2988 North  Level Estimated
Fri 02:46:00 PM 23.3924 113.2988 North  Level Estimated
Fri 02:47:00 PM 23.3924 113.2988 North  Level Estimated
Fri 02:48:00 PM 23.3924 113.2988 North  Level Estimated
Fri 02:49:00 PM 23.3924 113.2988 North  Level Estimated
Fri 02:50:00 PM 23.3924 113.2988 North  Level Estimated

Login

Don't have an account? Register now (free) for customized features, flight alerts, and more!